createdAt,value
2022-08-02T00:00:17.164Z,0.70
2022-08-02T00:02:45.509Z,0.50
2022-08-02T00:05:13.627Z,0.45
2022-08-02T00:07:41.521Z,0.50
2022-08-02T00:10:10.648Z,0.40
2022-08-02T00:12:38.433Z,0.30
2022-08-02T00:15:07.890Z,0.30
2022-08-02T00:17:34.775Z,0.35
2022-08-02T00:20:02.299Z,0.30
2022-08-02T00:22:29.207Z,0.30
2022-08-02T00:24:56.156Z,0.20
2022-08-02T00:27:23.086Z,0.20
2022-08-02T00:29:53.108Z,0.20
2022-08-02T00:32:23.740Z,0.25
2022-08-02T00:34:51.172Z,0.10
2022-08-02T00:37:18.157Z,0.20
2022-08-02T00:39:45.024Z,0.17
2022-08-02T00:42:15.486Z,0.20
2022-08-02T00:44:42.767Z,0.20
2022-08-02T00:47:09.977Z,0.30
2022-08-02T00:49:37.763Z,0.20
2022-08-02T00:52:05.384Z,0.20
2022-08-02T00:54:32.284Z,0.25
2022-08-02T00:56:59.386Z,0.20
2022-08-02T00:59:26.294Z,0.20
2022-08-02T01:01:56.261Z,0.30
2022-08-02T01:04:31.215Z,0.13
2022-08-02T01:06:59.730Z,0.20
2022-08-02T01:09:26.810Z,0.20
2022-08-02T01:11:54.121Z,0.13
2022-08-02T01:14:24.518Z,0.30
2022-08-02T01:17:06.735Z,0.20
2022-08-02T01:20:10.711Z,0.20
2022-08-02T01:23:05.112Z,0.20
2022-08-02T01:26:03.281Z,0.20
2022-08-02T01:28:38.855Z,0.20
2022-08-02T01:31:25.687Z,0.20
2022-08-02T01:34:01.342Z,0.22
2022-08-02T01:36:34.955Z,0.20
2022-08-02T01:39:05.305Z,0.40
2022-08-02T01:41:33.476Z,0.40
2022-08-02T01:44:01.627Z,0.20
2022-08-02T01:46:30.357Z,0.30
2022-08-02T01:48:59.541Z,0.20
2022-08-02T01:51:49.153Z,0.40
2022-08-02T01:54:19.630Z,0.35
2022-08-02T01:56:50.037Z,0.25
2022-08-02T01:59:21.140Z,0.20
2022-08-02T02:01:51.020Z,0.30
2022-08-02T02:04:19.697Z,0.22
2022-08-02T02:06:47.721Z,0.20
2022-08-02T02:09:17.078Z,0.40
2022-08-02T02:12:13.875Z,0.22
2022-08-02T02:14:37.524Z,0.40
2022-08-02T02:17:05.771Z,0.30
2022-08-02T02:19:37.028Z,0.22
2022-08-02T02:22:04.993Z,0.17
2022-08-02T02:24:33.973Z,0.20
2022-08-02T02:27:03.595Z,0.30
2022-08-02T02:29:34.430Z,0.40
2022-08-02T02:32:05.792Z,0.30
2022-08-02T02:34:35.856Z,0.20
2022-08-02T02:37:06.071Z,0.35
2022-08-02T02:39:34.709Z,0.30
2022-08-02T02:42:07.630Z,0.20
2022-08-02T02:44:36.456Z,0.30
2022-08-02T02:47:03.915Z,0.20
2022-08-02T02:49:36.849Z,0.40
2022-08-02T02:52:06.250Z,0.25
2022-08-02T02:54:35.393Z,0.30
2022-08-02T02:57:05.446Z,0.30
2022-08-02T02:59:42.961Z,0.40
2022-08-02T03:02:21.285Z,0.73
2022-08-02T03:04:57.137Z,0.50
2022-08-02T03:07:26.194Z,0.40
2022-08-02T03:09:53.902Z,0.30
2022-08-02T03:12:27.094Z,0.30
2022-08-02T03:15:04.893Z,0.40
2022-08-02T03:17:44.851Z,0.30
2022-08-02T03:20:17.087Z,0.60
2022-08-02T03:22:45.268Z,0.50
2022-08-02T03:25:13.272Z,0.28
2022-08-02T03:27:40.927Z,0.30
2022-08-02T03:30:10.266Z,0.30
2022-08-02T03:32:38.994Z,0.32
2022-08-02T03:35:09.253Z,0.38
2022-08-02T03:37:37.668Z,0.35
2022-08-02T03:40:08.377Z,0.40
2022-08-02T03:42:35.599Z,0.52
2022-08-02T03:45:08.925Z,0.35
2022-08-02T03:47:38.173Z,0.30
2022-08-02T03:50:07.713Z,0.30
2022-08-02T03:52:34.712Z,0.20
2022-08-02T03:55:01.769Z,0.25
2022-08-02T03:57:28.923Z,0.30
2022-08-02T03:59:55.878Z,0.30
2022-08-02T04:02:23.217Z,0.40
2022-08-02T04:04:50.159Z,0.57
2022-08-02T04:08:02.662Z,0.50
2022-08-02T04:10:04.548Z,0.40
2022-08-02T04:12:31.580Z,0.43
2022-08-02T04:14:59.594Z,0.40
2022-08-02T04:17:30.105Z,0.50
2022-08-02T04:20:06.465Z,0.40
2022-08-02T04:22:44.532Z,0.45
2022-08-02T04:25:17.547Z,0.60
2022-08-02T04:27:49.938Z,0.40
2022-08-02T04:30:19.002Z,0.50
2022-08-02T04:32:46.934Z,0.43
2022-08-02T04:35:19.537Z,0.50
2022-08-02T04:38:09.563Z,0.63
2022-08-02T04:40:37.044Z,0.40
2022-08-02T04:43:04.182Z,0.45
2022-08-02T04:45:31.467Z,0.68
2022-08-02T04:48:06.363Z,0.60
2022-08-02T04:50:34.381Z,0.52
2022-08-02T04:53:01.790Z,0.60
2022-08-02T04:55:29.891Z,0.50
2022-08-02T04:57:57.775Z,0.50
2022-08-02T05:00:27.524Z,0.55
2022-08-02T05:02:59.533Z,0.60
2022-08-02T05:05:27.030Z,0.60
2022-08-02T05:07:53.890Z,0.50
2022-08-02T05:10:23.609Z,0.75
2022-08-02T05:12:50.894Z,0.60
2022-08-02T05:15:18.635Z,0.70
2022-08-02T05:17:48.926Z,0.50
2022-08-02T05:20:17.877Z,0.50
2022-08-02T05:22:45.335Z,0.52
2022-08-02T05:25:12.808Z,0.50
2022-08-02T05:27:39.812Z,0.60
2022-08-02T05:30:07.740Z,0.80
2022-08-02T05:32:34.994Z,0.60
2022-08-02T05:35:02.597Z,0.63
2022-08-02T05:37:32.269Z,0.70
2022-08-02T05:40:01.073Z,0.60
2022-08-02T05:42:32.016Z,0.73
2022-08-02T05:44:59.099Z,0.60
2022-08-02T05:47:26.121Z,0.93
2022-08-02T05:49:53.386Z,0.80
2022-08-02T05:52:21.332Z,0.88
2022-08-02T05:55:06.390Z,0.90
2022-08-02T05:57:51.764Z,0.90
2022-08-02T06:00:20.086Z,0.95
2022-08-02T06:03:07.528Z,0.80
2022-08-02T06:05:40.195Z,0.70
2022-08-02T06:08:10.829Z,1.00
2022-08-02T06:10:40.374Z,0.80
2022-08-02T06:13:16.333Z,1.05
2022-08-02T06:15:52.808Z,0.75
2022-08-02T06:18:28.574Z,0.90
2022-08-02T06:22:42.131Z,0.85
2022-08-02T06:23:58.556Z,0.80
2022-08-02T06:26:27.792Z,0.80
2022-08-02T06:28:56.447Z,1.02
2022-08-02T06:31:23.481Z,0.85
2022-08-02T06:33:50.451Z,0.85
2022-08-02T06:36:31.886Z,0.80
2022-08-02T06:39:04.493Z,0.98
2022-08-02T06:41:39.413Z,0.73
2022-08-02T06:47:12.011Z,0.70
2022-08-02T06:49:52.243Z,0.88
2022-08-02T06:52:28.281Z,0.68
2022-08-02T06:54:57.952Z,0.50
2022-08-02T06:57:25.123Z,0.80
2022-08-02T06:59:52.234Z,0.80
2022-08-02T07:02:19.263Z,0.75
2022-08-02T07:04:46.331Z,0.73
2022-08-02T07:07:13.346Z,0.60
2022-08-02T07:09:56.862Z,0.75
2022-08-02T07:12:28.393Z,0.65
2022-08-02T07:14:55.390Z,0.60
2022-08-02T07:17:22.340Z,0.60
2022-08-02T07:19:49.326Z,0.90
2022-08-02T07:22:18.794Z,0.85
2022-08-02T07:24:45.763Z,0.77
2022-08-02T07:27:13.247Z,0.60
2022-08-02T07:29:46.502Z,0.60
2022-08-02T07:32:19.578Z,0.55
2022-08-02T07:37:35.822Z,0.80
2022-08-02T07:40:13.802Z,0.60
2022-08-02T07:42:43.732Z,0.73
2022-08-02T07:45:12.549Z,0.40
2022-08-02T07:47:44.450Z,0.45
2022-08-02T07:50:12.648Z,0.60
2022-08-02T07:52:40.543Z,0.68
2022-08-02T07:55:08.581Z,0.60
2022-08-02T07:57:36.857Z,0.75
2022-08-02T08:00:06.340Z,0.90
2022-08-02T08:02:39.104Z,0.70
2022-08-02T08:05:07.040Z,0.50
2022-08-02T08:07:34.845Z,0.70
2022-08-02T08:10:02.331Z,0.68
2022-08-02T08:12:29.436Z,0.95
2022-08-02T08:14:56.398Z,1.02
2022-08-02T08:17:24.462Z,1.20
2022-08-02T08:19:52.790Z,1.50
2022-08-02T08:22:21.004Z,1.20
2022-08-02T08:24:48.823Z,1.00
2022-08-02T08:27:16.827Z,1.02
2022-08-02T08:29:44.636Z,1.10
2022-08-02T08:32:16.350Z,1.30
2022-08-02T08:34:48.744Z,0.98
2022-08-02T08:37:18.330Z,1.13
2022-08-02T08:39:57.888Z,1.20
2022-08-02T08:42:30.893Z,1.40
2022-08-02T08:47:40.518Z,0.95
2022-08-02T08:50:21.324Z,1.13
2022-08-02T08:53:01.924Z,1.20
2022-08-02T08:55:30.426Z,1.25
2022-08-02T08:58:00.321Z,1.00
2022-08-02T09:00:28.369Z,1.23
2022-08-02T09:02:55.629Z,0.90
2022-08-02T09:05:23.125Z,1.27
2022-08-02T09:07:52.807Z,1.40
2022-08-02T09:10:36.392Z,1.50
2022-08-02T09:13:37.927Z,1.02
2022-08-02T09:16:10.977Z,1.02
2022-08-02T09:18:46.397Z,1.00
2022-08-02T09:21:15.323Z,0.70
2022-08-02T09:23:47.900Z,0.50
2022-08-02T09:26:20.133Z,0.60
2022-08-02T09:28:50.275Z,0.50
2022-08-02T09:31:22.595Z,0.93
2022-08-02T09:33:57.807Z,0.68
2022-08-02T09:36:25.991Z,0.60
2022-08-02T09:39:13.587Z,0.77
2022-08-02T09:41:42.517Z,0.60
2022-08-02T09:44:15.952Z,0.57
2022-08-02T09:46:46.011Z,0.57
2022-08-02T09:49:18.448Z,0.50
2022-08-02T09:51:54.269Z,0.50
2022-08-02T09:54:28.997Z,0.30
2022-08-02T09:57:01.721Z,0.55
2022-08-02T09:59:29.718Z,0.40
2022-08-02T10:02:02.593Z,0.38
2022-08-02T10:04:34.120Z,0.40
2022-08-02T10:07:19.657Z,0.40
2022-08-02T10:09:49.151Z,0.65
2022-08-02T10:12:16.222Z,0.50
2022-08-02T10:14:43.972Z,0.50
2022-08-02T10:17:11.402Z,0.35
2022-08-02T10:19:59.623Z,1.00
2022-08-02T10:22:27.810Z,0.80
2022-08-02T10:24:55.044Z,0.52
2022-08-02T10:27:25.374Z,0.52
2022-08-02T10:29:57.668Z,0.40
2022-08-02T10:32:30.122Z,0.60
2022-08-02T10:35:26.959Z,0.52
2022-08-02T10:38:03.468Z,0.60
2022-08-02T10:40:48.239Z,0.55
2022-08-02T10:43:36.039Z,0.47
2022-08-02T10:46:29.617Z,0.50
2022-08-02T10:49:36.269Z,0.50
2022-08-02T10:52:00.960Z,0.50
2022-08-02T10:54:37.286Z,0.52
2022-08-02T10:57:48.692Z,0.50
2022-08-02T11:00:24.707Z,0.60
2022-08-02T11:02:53.851Z,0.45
2022-08-02T11:05:42.946Z,0.30
2022-08-02T11:08:29.448Z,0.40
2022-08-02T11:11:01.233Z,0.40
2022-08-02T11:13:30.098Z,0.30
2022-08-02T11:16:01.465Z,0.35
2022-08-02T11:18:50.269Z,0.20
2022-08-02T11:21:28.910Z,0.40
2022-08-02T11:24:32.177Z,0.55
2022-08-02T11:27:01.390Z,0.40
2022-08-02T11:29:40.316Z,0.57
2022-08-02T11:32:30.507Z,0.50
2022-08-02T11:34:59.293Z,0.40
2022-08-02T11:37:37.987Z,0.40
2022-08-02T11:40:11.615Z,0.40
2022-08-02T11:42:53.841Z,0.47
2022-08-02T11:45:29.433Z,0.32
2022-08-02T11:47:56.749Z,0.40
2022-08-02T11:50:29.776Z,0.40
2022-08-02T11:52:57.833Z,0.30
2022-08-02T11:55:29.658Z,0.30
2022-08-02T12:00:31.949Z,0.40
2022-08-02T12:02:59.156Z,0.30
2022-08-02T12:05:51.156Z,0.20
2022-08-02T12:08:13.968Z,0.28
2022-08-02T12:10:51.378Z,0.30
2022-08-02T12:13:20.556Z,0.20
2022-08-02T12:15:47.711Z,0.20
2022-08-02T12:18:36.970Z,0.22
2022-08-02T12:21:20.112Z,0.30
2022-08-02T12:23:59.375Z,0.30
2022-08-02T12:26:29.281Z,0.40
2022-08-02T12:28:57.959Z,0.50
2022-08-02T12:31:55.827Z,0.50
2022-08-02T12:34:31.863Z,0.50
2022-08-02T12:37:06.324Z,0.40
2022-08-02T12:39:46.140Z,0.40
2022-08-02T12:42:15.709Z,0.40
2022-08-02T12:44:55.172Z,0.30
2022-08-02T12:47:22.205Z,0.50
2022-08-02T12:50:22.004Z,0.30
2022-08-02T12:53:22.939Z,0.32
2022-08-02T12:56:02.159Z,0.30
2022-08-02T12:58:31.335Z,0.30
2022-08-02T13:01:02.218Z,0.30
2022-08-02T13:04:09.362Z,0.10
2022-08-02T13:06:42.955Z,0.20
2022-08-02T13:09:16.085Z,0.20
2022-08-02T13:11:44.113Z,0.20
2022-08-02T13:14:16.078Z,0.30
2022-08-02T13:16:44.663Z,0.30
2022-08-02T13:19:13.318Z,0.30
2022-08-02T13:22:02.556Z,0.22
2022-08-02T13:24:39.434Z,0.30
2022-08-02T13:27:09.502Z,0.30
2022-08-02T13:29:38.251Z,0.20
2022-08-02T13:32:05.767Z,0.30
2022-08-02T13:34:32.835Z,0.15
2022-08-02T13:37:00.060Z,0.30
2022-08-02T13:39:27.144Z,0.30
2022-08-02T13:41:55.148Z,0.30
2022-08-02T13:44:22.708Z,0.20
2022-08-02T13:46:49.591Z,0.30
2022-08-02T13:49:19.888Z,0.30
2022-08-02T13:51:51.155Z,0.30
2022-08-02T13:54:18.055Z,0.20
2022-08-02T13:56:45.360Z,0.30
2022-08-02T13:59:55.197Z,0.20
2022-08-02T14:02:00.167Z,0.40
2022-08-02T14:04:27.825Z,0.60
2022-08-02T14:06:54.719Z,0.20
2022-08-02T14:09:26.513Z,0.20
2022-08-02T14:11:53.681Z,0.20
2022-08-02T14:14:20.860Z,0.20
2022-08-02T14:16:47.921Z,0.20
2022-08-02T14:19:16.531Z,0.40
2022-08-02T14:21:46.101Z,0.20
2022-08-02T14:24:16.396Z,0.20
2022-08-02T14:26:43.771Z,0.20
2022-08-02T14:29:10.816Z,0.30
2022-08-02T14:31:43.274Z,0.30
2022-08-02T14:34:14.535Z,0.40
2022-08-02T14:36:44.581Z,0.40
2022-08-02T14:39:12.534Z,0.20
2022-08-02T14:41:58.069Z,0.30
2022-08-02T14:44:25.829Z,0.30
2022-08-02T14:46:53.164Z,0.30
2022-08-02T14:49:25.135Z,0.25
2022-08-02T14:51:54.797Z,0.20
2022-08-02T14:54:27.756Z,0.30
2022-08-02T14:56:56.352Z,0.28
2022-08-02T14:59:23.567Z,0.20
2022-08-02T15:01:50.503Z,0.32
2022-08-02T15:04:17.518Z,0.28
2022-08-02T15:06:44.487Z,0.50
2022-08-02T15:09:11.550Z,0.30
2022-08-02T15:11:48.240Z,0.20
2022-08-02T15:14:25.514Z,0.25
2022-08-02T15:16:58.823Z,0.20
2022-08-02T15:19:56.156Z,0.30
2022-08-02T15:22:22.877Z,0.20
2022-08-02T15:24:51.442Z,0.30
2022-08-02T15:27:18.655Z,0.30
2022-08-02T15:29:46.880Z,0.17
2022-08-02T15:32:17.340Z,0.30
2022-08-02T15:34:44.921Z,0.20
2022-08-02T15:37:16.213Z,0.30
2022-08-02T15:42:13.497Z,0.30
2022-08-02T15:44:40.753Z,0.10
2022-08-02T15:47:08.233Z,0.20
2022-08-02T15:49:39.330Z,0.20
2022-08-02T15:52:08.243Z,0.20
2022-08-02T15:54:36.431Z,0.20
2022-08-02T15:57:03.465Z,0.20
2022-08-02T15:59:32.854Z,0.22
2022-08-02T16:01:59.962Z,0.30
2022-08-02T16:04:31.013Z,0.30
2022-08-02T16:07:01.646Z,0.32
2022-08-02T16:09:28.850Z,0.30
2022-08-02T16:11:55.822Z,0.40
2022-08-02T16:14:22.719Z,0.40
2022-08-02T16:16:49.683Z,0.30
2022-08-02T16:19:30.706Z,0.20
2022-08-02T16:22:03.578Z,0.50
2022-08-02T16:24:33.680Z,0.30
2022-08-02T16:27:00.695Z,0.30
2022-08-02T16:29:27.689Z,0.40
2022-08-02T16:32:00.708Z,0.25
2022-08-02T16:34:36.292Z,0.20
2022-08-02T16:37:15.246Z,0.38
2022-08-02T16:39:42.552Z,0.38
2022-08-02T16:42:09.450Z,0.30
2022-08-02T16:44:36.406Z,0.30
2022-08-02T16:47:03.460Z,0.20
2022-08-02T16:50:05.484Z,0.30
2022-08-02T16:52:20.987Z,0.38
2022-08-02T16:54:49.586Z,0.20
2022-08-02T16:57:20.880Z,0.47
2022-08-02T16:59:57.963Z,0.30
2022-08-02T17:02:26.453Z,0.30
2022-08-02T17:04:53.473Z,0.20
2022-08-02T17:08:10.386Z,0.30
2022-08-02T17:10:09.307Z,0.30
2022-08-02T17:12:37.442Z,0.30
2022-08-02T17:16:01.694Z,0.28
2022-08-02T17:17:54.956Z,0.23
2022-08-02T17:20:21.980Z,0.28
2022-08-02T17:22:51.649Z,0.20
2022-08-02T17:25:19.613Z,0.20
2022-08-02T17:27:55.720Z,0.20
2022-08-02T17:30:26.467Z,0.35
2022-08-02T17:33:00.450Z,0.30
2022-08-02T17:35:43.359Z,0.30
2022-08-02T17:38:26.084Z,0.28
2022-08-02T17:40:55.241Z,0.30
2022-08-02T17:43:22.285Z,0.50
2022-08-02T17:46:01.923Z,0.40
2022-08-02T17:48:55.037Z,0.28
2022-08-02T17:51:33.177Z,0.30
2022-08-02T17:54:10.090Z,0.20
2022-08-02T17:56:37.073Z,0.15
2022-08-02T17:59:20.933Z,0.30
2022-08-02T18:02:06.611Z,0.30
2022-08-02T18:04:35.650Z,0.25
2022-08-02T18:07:04.603Z,0.30
2022-08-02T18:09:37.113Z,0.38
2022-08-02T18:12:04.978Z,0.30
2022-08-02T18:14:31.943Z,0.30
2022-08-02T18:16:58.991Z,0.38
2022-08-02T18:19:42.715Z,0.30
2022-08-02T18:22:13.134Z,0.28
2022-08-02T18:24:40.698Z,0.30
2022-08-02T18:27:07.744Z,0.40
2022-08-02T18:29:38.697Z,0.50
2022-08-02T18:32:06.291Z,0.40
2022-08-02T18:34:47.606Z,0.40
2022-08-02T18:37:15.102Z,0.30
2022-08-02T18:39:51.123Z,0.40
2022-08-02T18:42:20.668Z,0.38
2022-08-02T18:44:47.600Z,0.38
2022-08-02T18:47:14.468Z,0.50
2022-08-02T18:49:46.587Z,0.32
2022-08-02T18:52:31.164Z,0.30
2022-08-02T18:54:58.712Z,0.40
2022-08-02T18:58:17.565Z,0.40
2022-08-02T19:00:13.678Z,0.20
2022-08-02T19:02:40.598Z,0.20
2022-08-02T19:05:07.904Z,0.30
2022-08-02T19:07:50.318Z,0.30
2022-08-02T19:10:21.329Z,0.30
2022-08-02T19:12:51.539Z,0.20
2022-08-02T19:15:18.748Z,0.30
2022-08-02T19:17:55.166Z,0.30
2022-08-02T19:20:25.693Z,0.20
2022-08-02T19:22:53.842Z,0.20
2022-08-02T19:25:27.891Z,0.20
2022-08-02T19:27:55.543Z,0.40
2022-08-02T19:30:25.820Z,0.20
2022-08-02T19:33:54.496Z,0.30
2022-08-02T19:36:03.853Z,0.20
2022-08-02T19:38:31.483Z,0.30
2022-08-02T19:40:59.575Z,0.20
2022-08-02T19:44:25.375Z,0.40
2022-08-02T19:46:23.616Z,0.20
2022-08-02T19:48:51.932Z,0.32
2022-08-02T19:51:49.334Z,0.43
2022-08-02T19:54:10.868Z,0.20
2022-08-02T19:56:37.928Z,0.20
2022-08-02T19:59:12.895Z,0.30
2022-08-02T20:01:46.370Z,0.30
2022-08-02T20:04:15.891Z,0.30
2022-08-02T20:06:50.855Z,0.20
2022-08-02T20:09:21.288Z,0.30
2022-08-02T20:11:54.711Z,0.35
2022-08-02T20:14:26.840Z,0.30
2022-08-02T20:16:57.247Z,0.30
2022-08-02T20:19:24.949Z,0.32
2022-08-02T20:24:39.501Z,0.30
2022-08-02T20:27:06.555Z,0.30
2022-08-02T20:29:42.867Z,0.30
2022-08-02T20:32:14.588Z,0.38
2022-08-02T20:34:42.011Z,0.30
2022-08-02T20:37:59.088Z,0.32
2022-08-02T20:39:55.768Z,0.20
2022-08-02T20:42:24.539Z,0.22
2022-08-02T20:44:55.643Z,0.30
2022-08-02T20:47:28.028Z,0.35
2022-08-02T20:50:30.389Z,0.20
2022-08-02T20:53:01.458Z,0.30
2022-08-02T20:55:30.862Z,0.35
2022-08-02T20:58:04.415Z,0.10
2022-08-02T21:00:32.114Z,0.20
2022-08-02T21:03:00.651Z,0.20
2022-08-02T21:05:54.673Z,0.20
2022-08-02T21:08:15.523Z,0.35
2022-08-02T21:10:50.277Z,0.30
2022-08-02T21:13:24.377Z,0.43
2022-08-02T21:15:56.804Z,0.20
2022-08-02T21:18:33.417Z,0.30
2022-08-02T21:21:08.809Z,0.20
2022-08-02T21:23:36.910Z,0.30
2022-08-02T21:26:06.601Z,0.30
2022-08-02T21:28:43.483Z,0.60
2022-08-02T21:31:14.917Z,0.40
2022-08-02T21:33:56.692Z,0.30
2022-08-02T21:36:32.746Z,0.30
2022-08-02T21:39:05.248Z,0.20
2022-08-02T21:44:23.548Z,0.30
2022-08-02T21:46:53.022Z,0.30
2022-08-02T21:49:40.910Z,0.30
2022-08-02T21:52:09.907Z,0.20
2022-08-02T21:54:39.816Z,0.28
2022-08-02T21:57:07.864Z,0.22
2022-08-02T21:59:45.445Z,0.30
2022-08-02T22:02:13.605Z,0.28
2022-08-02T22:04:41.597Z,0.25
2022-08-02T22:07:17.074Z,0.20
2022-08-02T22:09:46.008Z,0.30
2022-08-02T22:12:19.174Z,0.25
2022-08-02T22:14:54.171Z,0.22
2022-08-02T22:17:50.863Z,0.20
2022-08-02T22:20:19.901Z,0.20
2022-08-02T22:22:52.622Z,0.30
2022-08-02T22:28:38.160Z,0.30
2022-08-02T22:30:58.135Z,0.28
2022-08-02T22:33:47.010Z,0.30
2022-08-02T22:36:28.228Z,0.20
2022-08-02T22:38:55.675Z,0.40
2022-08-02T22:41:22.900Z,0.30
2022-08-02T22:43:52.260Z,0.40
2022-08-02T22:46:20.482Z,0.40
2022-08-02T22:48:53.576Z,0.28
2022-08-02T22:51:21.592Z,0.30
2022-08-02T22:53:48.646Z,0.30
2022-08-02T22:56:15.914Z,0.20
2022-08-02T22:59:05.213Z,0.20
2022-08-02T23:01:31.193Z,0.20
2022-08-02T23:03:58.106Z,0.20
2022-08-02T23:06:25.026Z,0.20
2022-08-02T23:08:51.913Z,0.20
2022-08-02T23:11:23.229Z,0.50
2022-08-02T23:13:50.251Z,0.40
2022-08-02T23:16:39.578Z,0.35
2022-08-02T23:19:25.088Z,0.20
2022-08-02T23:22:02.119Z,0.20
2022-08-02T23:24:32.960Z,0.30
2022-08-02T23:27:00.101Z,0.28
2022-08-02T23:29:27.028Z,0.32
2022-08-02T23:31:53.993Z,0.20
2022-08-02T23:34:21.851Z,0.28
2022-08-02T23:36:48.765Z,0.32
2022-08-02T23:39:15.746Z,0.30
2022-08-02T23:41:42.782Z,0.25
2022-08-02T23:44:14.471Z,0.30
2022-08-02T23:49:11.126Z,0.32
2022-08-02T23:51:38.129Z,0.20
2022-08-02T23:54:05.106Z,0.20
2022-08-02T23:56:32.023Z,0.28
2022-08-02T23:58:58.997Z,0.40
